Time;durP1;ratioP1;P1;durP2;ratioP2;P2;SDS_P1;SDS_P2;PMS_P1;PMS_P2;Temp;Humidity;BMP_temperature;BMP_pressure;BME280_temperature;BME280_humidity;BME280_pressure;Samples;Min_cycle;Max_cycle;Signal;HPM_P1;HPM_P2
2021/11/15 00:01:46;;;;;;;65.90;31.73;;;7.80;98.30;;;;;;5095250;23;20436;-82
2021/11/15 00:03:49;;;;;;;70.20;37.70;;;7.70;98.30;;;;;;5092951;23;20437;-82
2021/11/15 00:05:52;;;;;;;64.43;35.13;;;7.80;98.30;;;;;;5100939;23;20436;-82
2021/11/15 00:07:55;;;;;;;69.23;32.17;;;7.80;98.30;;;;;;5093529;23;20457;-83
2021/11/15 00:09:59;;;;;;;63.80;33.90;;;7.80;98.30;;;;;;5101024;23;20799;-82
2021/11/15 00:12:03;;;;;;;68.10;36.63;;;7.80;98.30;;;;;;5093895;23;20453;-83
2021/11/15 00:14:06;;;;;;;68.60;31.77;;;7.70;98.30;;;;;;5100551;23;20435;-83
2021/11/15 00:16:09;;;;;;;61.20;34.43;;;7.70;98.30;;;;;;5092976;23;21022;-82
2021/11/15 00:18:12;;;;;;;64.53;34.50;;;7.70;98.30;;;;;;5092563;23;20842;-82
2021/11/15 00:20:17;;;;;;;67.33;32.77;;;7.80;98.30;;;;;;5100824;23;20463;-82
2021/11/15 00:22:20;;;;;;;60.40;29.57;;;7.80;98.30;;;;;;5100061;23;20436;-83
2021/11/15 00:24:23;;;;;;;67.13;37.60;;;7.70;98.30;;;;;;5092576;23;20531;-82
2021/11/15 00:26:28;;;;;;;70.27;36.50;;;7.60;98.30;;;;;;5092574;23;20511;-82
2021/11/15 00:28:31;;;;;;;64.00;34.80;;;7.60;98.30;;;;;;5100852;23;20427;-82
2021/11/15 00:30:34;;;;;;;67.23;33.10;;;7.60;98.30;;;;;;5092085;23;20432;-82
2021/11/15 00:32:38;;;;;;;59.20;33.27;;;7.50;98.30;;;;;;5099834;23;20433;-81
2021/11/15 00:34:41;;;;;;;68.23;30.33;;;7.60;98.30;;;;;;5092578;23;20435;-83
2021/11/15 00:36:44;;;;;;;61.80;33.60;;;7.60;98.30;;;;;;5092469;23;20455;-83
2021/11/15 00:38:47;;;;;;;66.37;35.60;;;7.60;98.30;;;;;;5100194;23;20428;-82
2021/11/15 00:40:50;;;;;;;65.17;35.07;;;7.50;98.30;;;;;;5092752;23;20514;-82
2021/11/15 00:42:55;;;;;;;73.57;33.77;;;7.60;98.30;;;;;;5093078;23;20434;-83
2021/11/15 00:44:58;;;;;;;70.00;38.40;;;7.50;98.30;;;;;;5092765;23;20456;-82
2021/11/15 00:47:00;;;;;;;69.77;36.53;;;7.50;98.30;;;;;;5092541;23;20455;-82
2021/11/15 00:49:04;;;;;;;64.90;34.50;;;7.50;98.30;;;;;;5092394;23;20431;-83
2021/11/15 00:51:07;;;;;;;65.73;32.60;;;7.60;98.30;;;;;;5092507;23;20438;-82
2021/11/15 00:53:10;;;;;;;70.73;34.30;;;7.80;98.30;;;;;;5092147;23;20434;-82
2021/11/15 00:55:13;;;;;;;70.53;38.07;;;7.70;98.30;;;;;;5099927;23;20430;-83
2021/11/15 00:57:16;;;;;;;70.60;38.97;;;7.60;98.30;;;;;;5099624;23;20578;-82
2021/11/15 00:59:21;;;;;;;64.83;36.03;;;7.50;98.30;;;;;;5091596;23;20925;-82
2021/11/15 01:01:24;;;;;;;60.10;30.27;;;7.60;98.30;;;;;;5092307;23;20498;-82
2021/11/15 01:03:27;;;;;;;72.57;36.63;;;7.60;98.30;;;;;;5091965;23;20431;-82
2021/11/15 01:05:30;;;;;;;66.40;37.27;;;7.60;98.30;;;;;;5091854;23;20455;-82
2021/11/15 01:07:33;;;;;;;61.33;34.00;;;7.60;98.30;;;;;;5091681;23;20451;-82
2021/11/15 01:09:36;;;;;;;65.33;34.67;;;7.60;98.30;;;;;;5091609;23;20930;-82
2021/11/15 01:11:39;;;;;;;62.90;33.87;;;7.50;98.30;;;;;;5100626;23;20478;-82
2021/11/15 01:13:42;;;;;;;67.27;30.63;;;7.60;98.30;;;;;;5092430;23;20432;-82
2021/11/15 01:15:46;;;;;;;68.60;35.10;;;7.60;98.30;;;;;;5092443;23;20486;-82
2021/11/15 01:17:50;;;;;;;65.23;35.80;;;7.60;98.30;;;;;;5092478;23;20448;-83
2021/11/15 01:19:53;;;;;;;65.60;32.50;;;7.50;98.30;;;;;;5091880;23;20476;-82
2021/11/15 01:21:56;;;;;;;64.30;33.87;;;7.60;98.30;;;;;;5092447;23;20467;-83
2021/11/15 01:24:00;;;;;;;59.07;31.40;;;7.40;98.30;;;;;;5092549;23;20927;-83
2021/11/15 01:26:03;;;;;;;61.37;31.10;;;7.40;98.30;;;;;;5092490;23;20451;-82
2021/11/15 01:28:07;;;;;;;62.10;35.10;;;7.40;98.30;;;;;;5091863;23;20465;-82
2021/11/15 01:30:13;;;;;;;59.27;34.93;;;7.40;98.30;;;;;;5091710;23;20457;-83
2021/11/15 01:32:18;;;;;;;69.63;35.30;;;7.40;98.30;;;;;;5100939;23;20415;-83
2021/11/15 01:34:21;;;;;;;73.73;38.47;;;7.40;98.30;;;;;;5092440;23;20431;-83
2021/11/15 01:36:23;;;;;;;62.70;37.10;;;7.50;98.30;;;;;;5100444;23;20750;-83
2021/11/15 01:38:26;;;;;;;68.20;34.60;;;7.50;98.30;;;;;;5099870;23;20438;-83
2021/11/15 01:40:32;;;;;;;64.30;34.57;;;7.60;98.30;;;;;;5100176;23;20449;-83
2021/11/15 01:42:35;;;;;;;68.47;37.70;;;7.60;98.30;;;;;;5092018;23;20413;-83
2021/11/15 01:44:38;;;;;;;65.27;35.73;;;7.60;98.30;;;;;;5092209;23;20437;-82
2021/11/15 01:46:41;;;;;;;67.50;35.70;;;7.70;98.30;;;;;;5092285;23;20456;-82
2021/11/15 01:48:46;;;;;;;66.00;33.43;;;7.60;98.30;;;;;;5091962;23;20439;-82
2021/11/15 01:50:49;;;;;;;61.43;30.20;;;7.50;98.30;;;;;;5099852;23;20510;-82
2021/11/15 01:52:53;;;;;;;66.47;35.70;;;7.50;98.30;;;;;;5091997;23;20499;-82
2021/11/15 01:54:56;;;;;;;63.83;35.80;;;7.70;98.30;;;;;;5091874;23;20518;-82
2021/11/15 01:56:59;;;;;;;72.60;36.00;;;7.70;98.30;;;;;;5091972;23;20452;-82
2021/11/15 01:59:03;;;;;;;66.47;34.27;;;7.70;98.30;;;;;;5091565;23;20437;-83
2021/11/15 02:01:08;;;;;;;71.30;34.60;;;7.60;98.30;;;;;;5100434;23;20483;-83
2021/11/15 02:03:12;;;;;;;64.10;36.47;;;7.50;98.30;;;;;;5091504;23;20604;-82
2021/11/15 02:05:16;;;;;;;69.17;36.03;;;7.60;98.30;;;;;;5091652;23;20443;-82
2021/11/15 02:07:19;;;;;;;66.93;37.00;;;7.60;98.30;;;;;;5091463;23;20455;-82
2021/11/15 02:09:22;;;;;;;66.40;34.40;;;7.50;98.30;;;;;;5099655;23;20426;-82
2021/11/15 02:11:25;;;;;;;72.10;39.77;;;7.50;98.30;;;;;;5092476;23;20462;-82
2021/11/15 02:13:28;;;;;;;69.87;36.90;;;7.70;98.30;;;;;;5100275;23;20433;-82
2021/11/15 02:15:31;;;;;;;67.63;33.40;;;7.70;98.30;;;;;;5091520;23;20432;-83
2021/11/15 02:17:34;;;;;;;68.83;32.87;;;7.70;98.30;;;;;;5098944;23;20532;-83
2021/11/15 02:19:39;;;;;;;71.23;30.30;;;7.80;98.30;;;;;;5098458;23;20463;-83
2021/11/15 02:21:43;;;;;;;66.13;34.80;;;7.80;98.30;;;;;;5099203;23;20911;-83
2021/11/15 02:23:47;;;;;;;63.67;33.53;;;7.50;98.30;;;;;;5100186;23;20432;-82
2021/11/15 02:25:52;;;;;;;67.80;35.70;;;7.50;98.30;;;;;;5099637;23;20498;-82
2021/11/15 02:27:55;;;;;;;64.83;35.50;;;7.50;98.30;;;;;;5099977;23;21018;-82
2021/11/15 02:29:58;;;;;;;59.83;34.70;;;7.50;98.30;;;;;;5100041;23;20502;-83
2021/11/15 02:32:01;;;;;;;68.17;35.17;;;7.50;98.30;;;;;;5091547;23;20442;-82
2021/11/15 02:34:04;;;;;;;65.27;34.50;;;7.50;98.30;;;;;;5091955;23;20431;-83
2021/11/15 02:36:08;;;;;;;64.07;32.57;;;7.40;98.30;;;;;;5092171;23;20510;-83
2021/11/15 02:38:13;;;;;;;64.47;34.03;;;7.40;98.30;;;;;;5091889;23;20452;-83
2021/11/15 02:40:20;;;;;;;69.20;37.27;;;7.50;98.30;;;;;;5091588;23;20932;-82
2021/11/15 02:42:23;;;;;;;67.20;29.30;;;7.50;98.30;;;;;;5091784;23;20416;-82
2021/11/15 02:44:28;;;;;;;73.13;37.77;;;7.50;98.30;;;;;;5099939;23;20423;-82
2021/11/15 02:46:31;;;;;;;72.00;35.30;;;7.50;98.30;;;;;;5091841;23;20451;-82
2021/11/15 02:48:34;;;;;;;72.83;36.87;;;7.50;98.30;;;;;;5100257;23;20824;-82
2021/11/15 02:50:37;;;;;;;64.40;35.70;;;7.50;98.30;;;;;;5091959;23;20440;-82
2021/11/15 02:52:42;;;;;;;74.10;39.13;;;7.40;98.30;;;;;;5091876;23;20433;-82
2021/11/15 02:54:47;;;;;;;69.40;35.60;;;7.40;98.30;;;;;;5091693;23;20434;-83
2021/11/15 02:56:50;;;;;;;75.20;41.57;;;7.50;98.30;;;;;;5092509;23;20451;-82
2021/11/15 02:58:53;;;;;;;77.00;34.70;;;7.40;98.30;;;;;;5092442;23;20911;-82
2021/11/15 03:00:59;;;;;;;74.77;37.27;;;7.40;98.30;;;;;;5092985;23;20437;-82
2021/11/15 03:03:03;;;;;;;75.27;39.80;;;7.30;98.30;;;;;;5093272;23;20422;-82
2021/11/15 03:05:07;;;;;;;82.97;40.53;;;7.30;98.30;;;;;;5092965;23;20430;-82
2021/11/15 03:07:10;;;;;;;75.63;40.30;;;7.30;98.30;;;;;;5100493;23;20453;-82
2021/11/15 03:09:12;;;;;;;73.07;40.17;;;7.20;98.30;;;;;;5101089;23;20427;-82
2021/11/15 03:11:17;;;;;;;74.07;40.60;;;7.20;98.30;;;;;;5101380;23;20430;-82
2021/11/15 03:13:20;;;;;;;77.27;40.00;;;7.30;98.30;;;;;;5093243;23;20427;-82
2021/11/15 03:15:25;;;;;;;70.90;39.80;;;7.20;98.30;;;;;;5093465;23;20413;-81
2021/11/15 03:17:28;;;;;;;78.27;41.97;;;7.20;98.30;;;;;;5093725;23;20451;-82
2021/11/15 03:19:31;;;;;;;79.67;41.83;;;7.10;98.30;;;;;;5100609;23;20929;-82
2021/11/15 03:21:34;;;;;;;73.30;40.40;;;7.20;98.30;;;;;;5092206;23;20432;-82
2021/11/15 03:23:40;;;;;;;81.07;42.00;;;7.20;98.30;;;;;;5092881;23;20546;-82
2021/11/15 03:25:44;;;;;;;82.67;44.17;;;7.10;98.30;;;;;;5101023;23;20485;-82
2021/11/15 03:27:48;;;;;;;77.17;39.57;;;7.20;98.30;;;;;;5092981;23;20778;-83
2021/11/15 03:29:51;;;;;;;79.13;40.80;;;7.30;98.30;;;;;;5092794;23;20518;-82
2021/11/15 03:31:54;;;;;;;78.33;40.40;;;7.20;98.30;;;;;;5092749;23;20427;-82
2021/11/15 03:33:59;;;;;;;80.30;43.47;;;7.30;98.30;;;;;;5092569;23;20442;-82
2021/11/15 03:36:08;;;;;;;83.00;41.27;;;7.40;98.30;;;;;;5092766;23;20454;-82
2021/11/15 03:38:11;;;;;;;88.43;41.50;;;7.40;98.30;;;;;;5092381;23;20451;-82
2021/11/15 03:40:20;;;;;;;83.30;41.37;;;7.30;98.30;;;;;;5092389;23;20427;-82
2021/11/15 03:42:25;;;;;;;81.83;40.80;;;7.30;98.30;;;;;;5100515;23;20419;-83
2021/11/15 03:44:33;;;;;;;91.83;41.83;;;7.30;98.30;;;;;;5093782;23;20437;-82
2021/11/15 03:46:36;;;;;;;81.00;43.30;;;7.20;98.30;;;;;;5093695;23;20553;-82
2021/11/15 03:49:04;;;;;;;81.33;41.20;;;7.20;98.30;;;;;;5094120;23;20799;-82
2021/11/15 03:51:34;;;;;;;85.13;42.90;;;7.10;98.30;;;;;;5102717;23;20955;-82
2021/11/15 03:53:41;;;;;;;78.50;41.93;;;7.10;98.30;;;;;;5102413;23;20433;-81
2021/11/15 03:55:44;;;;;;;85.63;44.20;;;7.10;98.30;;;;;;5102468;23;20466;-82
2021/11/15 03:58:11;;;;;;;87.70;42.63;;;7.10;98.30;;;;;;5093620;23;20445;-82
2021/11/15 04:00:43;;;;;;;88.30;42.83;;;7.00;98.30;;;;;;5101401;23;20437;-82
2021/11/15 04:02:53;;;;;;;83.93;43.77;;;7.10;98.30;;;;;;5093760;23;20407;-82
2021/11/15 04:05:01;;;;;;;86.97;43.67;;;7.20;98.30;;;;;;5093498;23;20423;-81
2021/11/15 04:07:36;;;;;;;83.10;43.70;;;7.20;98.30;;;;;;5100919;23;20964;-81
2021/11/15 04:10:07;;;;;;;84.67;42.60;;;7.20;98.30;;;;;;5093102;23;20462;-82
2021/11/15 04:12:33;;;;;;;84.70;44.67;;;7.20;98.30;;;;;;5092824;23;20502;-81
2021/11/15 04:15:01;;;;;;;85.80;41.77;;;7.10;98.30;;;;;;5101435;23;20877;-82
2021/11/15 04:17:14;;;;;;;83.23;43.50;;;7.20;98.30;;;;;;5101283;23;20649;-81
2021/11/15 04:19:42;;;;;;;82.63;41.93;;;7.20;98.30;;;;;;5100784;23;20421;-81
2021/11/15 04:21:48;;;;;;;80.17;40.60;;;7.10;98.30;;;;;;5093058;23;20444;-81
2021/11/15 04:23:51;;;;;;;77.57;41.57;;;7.00;98.30;;;;;;5091986;23;20488;-81
2021/11/15 04:25:54;;;;;;;87.57;44.00;;;7.00;98.30;;;;;;5100928;23;20425;-82
2021/11/15 04:28:21;;;;;;;92.50;43.80;;;7.10;98.30;;;;;;5092792;23;20819;-82
2021/11/15 04:30:48;;;;;;;79.13;41.30;;;7.10;98.30;;;;;;5093472;23;20999;-82
2021/11/15 04:33:16;;;;;;;85.00;44.40;;;7.10;98.30;;;;;;5101314;23;20421;-82
2021/11/15 04:35:44;;;;;;;84.63;44.20;;;7.10;98.30;;;;;;5092933;23;20425;-82
2021/11/15 04:37:48;;;;;;;84.87;44.00;;;7.10;98.30;;;;;;5092668;23;20451;-82
2021/11/15 04:39:53;;;;;;;81.10;42.00;;;7.20;98.30;;;;;;5100588;23;20425;-82
2021/11/15 04:41:59;;;;;;;80.10;41.43;;;7.20;98.30;;;;;;5092588;23;20977;-82
2021/11/15 04:44:02;;;;;;;95.20;43.50;;;7.20;98.30;;;;;;5100927;23;20908;-82
2021/11/15 04:46:05;;;;;;;79.53;39.77;;;7.10;98.30;;;;;;5100538;23;20425;-82
2021/11/15 04:48:08;;;;;;;80.77;40.97;;;7.10;98.30;;;;;;5106224;23;20518;-82
2021/11/15 04:50:13;;;;;;;82.97;43.37;;;7.20;98.30;;;;;;5098826;23;20441;-82
2021/11/15 04:52:16;;;;;;;88.33;41.00;;;7.10;98.30;;;;;;5105793;23;20424;-81
2021/11/15 04:54:19;;;;;;;91.43;44.17;;;7.20;98.30;;;;;;5100126;23;20476;-82
2021/11/15 04:56:22;;;;;;;76.93;40.83;;;7.10;98.30;;;;;;5107567;23;20498;-81
2021/11/15 04:58:25;;;;;;;75.40;40.83;;;7.10;98.30;;;;;;5108948;23;20431;-81
2021/11/15 05:00:33;;;;;;;87.73;41.27;;;7.00;98.30;;;;;;5100044;23;20442;-82
2021/11/15 05:02:36;;;;;;;83.53;41.20;;;7.00;98.30;;;;;;5104493;23;20402;-82
2021/11/15 05:04:40;;;;;;;83.13;40.67;;;7.10;98.30;;;;;;5101108;23;20395;-82
2021/11/15 05:06:44;;;;;;;79.83;41.97;;;7.10;98.30;;;;;;5100907;23;20444;-81
2021/11/15 05:08:47;;;;;;;77.77;41.10;;;7.00;98.30;;;;;;5092887;23;20441;-82
2021/11/15 05:10:50;;;;;;;87.00;41.00;;;7.00;98.30;;;;;;5093183;23;20429;-82
2021/11/15 05:12:53;;;;;;;76.87;40.47;;;7.00;98.30;;;;;;5092754;23;20437;-82
2021/11/15 05:14:56;;;;;;;79.53;42.57;;;7.00;98.30;;;;;;5095373;23;20434;-81
2021/11/15 05:16:59;;;;;;;77.17;42.00;;;6.90;98.30;;;;;;5103536;23;20446;-82
2021/11/15 05:19:02;;;;;;;79.77;43.37;;;6.80;98.30;;;;;;5094967;23;20807;-82
2021/11/15 05:21:05;;;;;;;77.23;41.43;;;7.00;98.30;;;;;;5095007;23;20445;-82
2021/11/15 05:23:10;;;;;;;73.93;40.37;;;7.00;98.30;;;;;;5094880;23;20441;-83
2021/11/15 05:25:14;;;;;;;79.07;41.50;;;6.90;98.30;;;;;;5095759;23;20514;-83
2021/11/15 05:27:17;;;;;;;72.97;38.67;;;6.90;98.30;;;;;;5102636;23;21005;-82
2021/11/15 05:29:20;;;;;;;68.27;37.70;;;6.80;98.30;;;;;;5094885;23;20934;-82
2021/11/15 05:31:23;;;;;;;65.97;38.60;;;6.80;98.30;;;;;;5092838;23;20411;-82
2021/11/15 05:33:26;;;;;;;66.20;35.50;;;6.80;98.30;;;;;;5092719;23;20438;-82
2021/11/15 05:35:29;;;;;;;67.87;36.53;;;6.80;98.30;;;;;;5101128;23;20792;-82
2021/11/15 05:37:32;;;;;;;66.70;37.77;;;6.70;98.30;;;;;;5100342;23;20418;-83
2021/11/15 05:39:37;;;;;;;66.03;37.37;;;6.70;98.30;;;;;;5100527;23;20433;-83
2021/11/15 05:41:40;;;;;;;59.90;35.50;;;6.60;98.30;;;;;;5100980;23;20767;-83
2021/11/15 05:43:43;;;;;;;64.47;36.80;;;6.70;98.30;;;;;;5092884;23;20796;-83
2021/11/15 05:45:46;;;;;;;58.13;35.47;;;6.70;98.30;;;;;;5093609;23;20488;-83
2021/11/15 05:47:49;;;;;;;55.60;34.07;;;6.80;98.30;;;;;;5100578;23;20455;-84
2021/11/15 05:49:52;;;;;;;56.70;34.20;;;6.70;98.30;;;;;;5100297;23;20434;-82
2021/11/15 05:51:57;;;;;;;62.43;34.60;;;6.80;98.30;;;;;;5099566;23;20433;-83
2021/11/15 05:54:01;;;;;;;69.37;36.00;;;6.80;98.30;;;;;;5092547;23;20795;-83
2021/11/15 05:56:07;;;;;;;61.60;34.77;;;6.90;98.30;;;;;;5100373;23;20985;-83
2021/11/15 05:58:10;;;;;;;63.97;37.77;;;6.90;98.30;;;;;;5100956;23;20519;-83
2021/11/15 06:00:16;;;;;;;60.27;33.93;;;7.00;98.30;;;;;;5099286;23;20440;-83
2021/11/15 06:02:19;;;;;;;63.63;34.67;;;6.90;98.30;;;;;;5099538;23;20434;-84
2021/11/15 06:04:22;;;;;;;57.67;34.10;;;6.90;98.30;;;;;;5090875;23;20441;-83
2021/11/15 06:06:25;;;;;;;62.47;32.40;;;6.90;98.30;;;;;;5099270;23;20441;-83
2021/11/15 06:08:28;;;;;;;57.63;32.77;;;6.90;98.30;;;;;;5099170;23;20999;-84
2021/11/15 06:10:31;;;;;;;57.13;33.67;;;6.90;98.30;;;;;;5099132;23;20423;-84
2021/11/15 06:12:37;;;;;;;61.53;36.07;;;6.90;98.30;;;;;;5098982;23;20429;-83
2021/11/15 06:14:40;;;;;;;55.93;32.80;;;6.90;98.30;;;;;;5099856;23;20836;-83
2021/11/15 06:16:43;;;;;;;59.93;32.20;;;7.00;98.30;;;;;;5100660;23;20443;-84
2021/11/15 06:18:46;;;;;;;56.90;33.80;;;7.00;98.30;;;;;;5099635;23;20429;-83
2021/11/15 06:20:49;;;;;;;56.97;32.37;;;6.90;98.30;;;;;;5100580;23;20429;-83
2021/11/15 06:22:52;;;;;;;56.70;34.27;;;6.90;98.30;;;;;;5101012;23;20451;-83
2021/11/15 06:24:55;;;;;;;56.13;34.20;;;7.00;98.30;;;;;;5098832;23;20513;-83
2021/11/15 06:26:58;;;;;;;57.77;35.80;;;7.00;98.30;;;;;;5098952;23;20445;-83
2021/11/15 06:29:02;;;;;;;57.93;32.57;;;7.00;98.30;;;;;;5098604;23;20450;-82
2021/11/15 06:31:08;;;;;;;53.97;31.20;;;7.00;98.30;;;;;;5099231;23;20430;-83
2021/11/15 06:33:12;;;;;;;52.57;32.80;;;7.00;98.30;;;;;;5092894;23;20458;-83
2021/11/15 06:35:15;;;;;;;59.07;34.50;;;7.00;98.30;;;;;;5100285;23;20517;-83
2021/11/15 06:37:18;;;;;;;57.73;35.40;;;7.00;98.30;;;;;;5100880;23;20814;-83
2021/11/15 06:39:24;;;;;;;57.80;33.17;;;6.90;98.30;;;;;;5100400;23;20423;-83
2021/11/15 06:41:27;;;;;;;58.27;35.63;;;7.00;98.30;;;;;;5100840;23;20437;-82
2021/11/15 06:43:30;;;;;;;59.60;35.43;;;7.10;98.30;;;;;;5100846;23;20931;-83
2021/11/15 06:45:35;;;;;;;56.57;33.10;;;7.00;98.30;;;;;;5100491;23;20427;-83
2021/11/15 06:47:40;;;;;;;52.43;32.87;;;7.00;98.30;;;;;;5100460;23;20518;-83
2021/11/15 06:49:43;;;;;;;57.87;33.97;;;7.00;98.30;;;;;;5100010;23;20498;-82
2021/11/15 06:51:47;;;;;;;55.17;33.70;;;7.00;98.30;;;;;;5093166;23;20438;-83
2021/11/15 06:53:51;;;;;;;67.00;35.30;;;7.00;98.30;;;;;;5101231;23;20419;-83
2021/11/15 06:55:53;;;;;;;54.87;32.83;;;7.00;98.30;;;;;;5101419;23;20905;-84
2021/11/15 06:57:57;;;;;;;66.70;33.57;;;7.00;98.30;;;;;;5101228;23;20470;-84
2021/11/15 07:00:00;;;;;;;60.50;34.10;;;7.00;98.30;;;;;;5100990;23;20437;-83
2021/11/15 07:02:04;;;;;;;57.43;34.00;;;7.00;98.30;;;;;;5093338;23;20522;-82
2021/11/15 07:04:10;;;;;;;66.33;36.50;;;7.00;98.30;;;;;;5101018;23;20415;-83
2021/11/15 07:06:13;;;;;;;53.97;32.60;;;7.10;98.30;;;;;;5101059;23;20429;-83
2021/11/15 07:08:21;;;;;;;58.27;32.97;;;7.10;98.30;;;;;;5092946;23;20963;-84
2021/11/15 07:10:25;;;;;;;59.40;33.50;;;7.10;98.30;;;;;;5100937;23;20433;-83
2021/11/15 07:12:28;;;;;;;51.87;31.97;;;7.10;98.30;;;;;;5101583;23;20431;-83
2021/11/15 07:14:31;;;;;;;56.10;33.80;;;7.00;98.30;;;;;;5100697;23;20435;-83
2021/11/15 07:16:34;;;;;;;53.90;33.10;;;7.10;98.30;;;;;;5100820;23;20871;-84
2021/11/15 07:18:38;;;;;;;58.07;31.97;;;7.10;98.30;;;;;;5093339;23;20728;-83
2021/11/15 07:20:41;;;;;;;55.63;33.17;;;7.10;98.30;;;;;;5100642;23;20403;-84
2021/11/15 07:22:47;;;;;;;53.70;32.47;;;7.10;98.30;;;;;;5101141;23;20434;-84
2021/11/15 07:24:50;;;;;;;52.37;31.93;;;7.10;98.30;;;;;;5101483;23;20408;-84
2021/11/15 07:26:53;;;;;;;50.50;31.40;;;7.10;98.30;;;;;;5101100;23;20469;-83
2021/11/15 07:28:56;;;;;;;52.90;31.70;;;7.10;98.30;;;;;;5101062;23;20450;-84
2021/11/15 07:30:59;;;;;;;53.83;30.97;;;7.10;98.30;;;;;;5101470;23;20431;-83
2021/11/15 07:33:02;;;;;;;57.40;30.17;;;7.30;98.30;;;;;;5093667;23;20442;-83
2021/11/15 07:35:08;;;;;;;50.40;29.70;;;7.20;98.30;;;;;;5101153;23;20424;-84
2021/11/15 07:37:11;;;;;;;53.93;32.40;;;7.20;98.30;;;;;;5101306;23;20794;-83
2021/11/15 07:39:14;;;;;;;48.87;28.43;;;7.30;98.30;;;;;;5100450;23;20719;-83
2021/11/15 07:41:19;;;;;;;50.03;26.10;;;7.30;98.30;;;;;;5093113;23;20917;-83
2021/11/15 07:43:22;;;;;;;55.87;27.37;;;7.20;98.30;;;;;;5100740;23;20430;-83
2021/11/15 07:45:25;;;;;;;50.17;30.80;;;7.20;98.30;;;;;;5100950;23;20539;-83
2021/11/15 07:47:28;;;;;;;45.90;26.23;;;7.20;98.30;;;;;;5100712;23;20971;-83
2021/11/15 07:49:31;;;;;;;60.13;34.30;;;7.20;98.30;;;;;;5100245;23;20978;-82
2021/11/15 07:51:35;;;;;;;66.73;39.37;;;7.30;98.30;;;;;;5100904;23;20431;-82
2021/11/15 07:53:38;;;;;;;49.57;31.87;;;7.40;98.30;;;;;;5100437;23;20432;-82
2021/11/15 07:55:42;;;;;;;43.80;28.17;;;7.20;98.30;;;;;;5092368;23;20744;-82
2021/11/15 07:57:46;;;;;;;53.00;28.40;;;7.20;98.30;;;;;;5099430;23;20469;-82
2021/11/15 07:59:49;;;;;;;48.20;25.50;;;7.10;98.30;;;;;;5099050;23;20405;-83
2021/11/15 08:01:53;;;;;;;48.47;30.37;;;7.20;98.30;;;;;;5099815;23;20756;-82
2021/11/15 08:03:56;;;;;;;48.53;30.40;;;7.20;98.30;;;;;;5099744;23;20427;-82
2021/11/15 08:05:59;;;;;;;47.43;29.77;;;7.20;98.30;;;;;;5099584;23;20511;-83
2021/11/15 08:08:04;;;;;;;49.10;30.50;;;7.30;98.30;;;;;;5099751;23;20939;-82
2021/11/15 08:10:10;;;;;;;49.07;27.67;;;7.30;98.30;;;;;;5099007;23;20985;-82
2021/11/15 08:12:13;;;;;;;45.90;25.33;;;7.30;98.30;;;;;;5100845;23;20478;-82
2021/11/15 08:14:17;;;;;;;47.80;28.27;;;7.40;98.30;;;;;;5099342;23;20434;-82
2021/11/15 08:16:20;;;;;;;49.37;29.03;;;7.40;98.30;;;;;;5099768;23;20431;-82
2021/11/15 08:18:23;;;;;;;49.67;28.20;;;7.50;98.30;;;;;;5099589;23;20501;-82
2021/11/15 08:20:29;;;;;;;47.87;29.47;;;7.50;98.30;;;;;;5099003;23;20507;-82
2021/11/15 08:22:32;;;;;;;43.80;29.60;;;7.40;98.30;;;;;;5099533;23;20419;-82
2021/11/15 08:25:26;;;;;;;48.47;30.50;;;7.40;98.30;;;;;;5099656;23;20521;-83
2021/11/15 08:27:30;;;;;;;49.30;30.70;;;7.30;98.30;;;;;;5068448;23;20448;-82
2021/11/15 08:29:34;;;;;;;45.57;30.00;;;7.30;98.30;;;;;;5099100;23;20460;-82
2021/11/15 08:31:39;;;;;;;44.87;27.57;;;7.40;98.30;;;;;;5099373;23;20537;-82
2021/11/15 08:33:42;;;;;;;47.60;30.60;;;7.30;98.30;;;;;;5099956;23;20419;-83
2021/11/15 08:35:48;;;;;;;49.30;29.90;;;7.30;98.30;;;;;;5099263;23;20520;-83
2021/11/15 08:38:25;;;;;;;48.53;29.90;;;7.30;98.30;;;;;;5099160;23;20940;-82
2021/11/15 08:40:28;;;;;;;45.20;30.27;;;7.40;98.30;;;;;;5099501;23;20422;-82
2021/11/15 08:42:32;;;;;;;44.53;26.87;;;7.40;98.30;;;;;;5099953;23;20430;-82
2021/11/15 08:44:40;;;;;;;43.20;30.53;;;7.40;98.30;;;;;;5099573;23;20429;-83
2021/11/15 08:46:45;;;;;;;47.53;27.77;;;7.30;98.30;;;;;;5099704;23;20817;-82
2021/11/15 08:48:49;;;;;;;43.13;27.90;;;7.30;98.30;;;;;;5099237;23;20464;-82
2021/11/15 08:50:52;;;;;;;44.00;27.80;;;7.30;98.30;;;;;;5099673;23;20817;-82
2021/11/15 08:52:56;;;;;;;50.53;30.43;;;7.30;98.30;;;;;;5099854;23;20456;-82
2021/11/15 08:54:58;;;;;;;43.30;28.70;;;7.30;98.30;;;;;;5099668;23;20463;-82
2021/11/15 08:57:04;;;;;;;47.27;30.10;;;7.30;98.30;;;;;;5101357;23;20786;-81
2021/11/15 08:59:21;;;;;;;45.60;28.37;;;7.30;98.30;;;;;;5102599;23;20510;-81
2021/11/15 09:01:25;;;;;;;46.00;28.03;;;7.30;98.30;;;;;;5095926;23;20440;-81
2021/11/15 09:03:28;;;;;;;45.30;23.97;;;7.20;98.30;;;;;;5105818;23;20779;-81
2021/11/15 09:05:31;;;;;;;47.73;30.27;;;7.20;98.30;;;;;;5097994;23;20434;-81
2021/11/15 09:07:37;;;;;;;48.60;29.17;;;7.30;98.30;;;;;;5097746;23;20518;-81
2021/11/15 09:09:41;;;;;;;46.20;28.87;;;7.20;98.30;;;;;;5098154;23;20458;-81
2021/11/15 09:11:45;;;;;;;42.93;28.70;;;7.20;98.30;;;;;;5106411;23;20764;-81
2021/11/15 09:13:49;;;;;;;42.80;28.97;;;7.10;98.30;;;;;;5106793;23;20422;-81
2021/11/15 09:15:53;;;;;;;43.00;27.60;;;7.10;98.30;;;;;;5098387;23;20730;-81
2021/11/15 09:17:56;;;;;;;42.07;28.93;;;7.20;98.30;;;;;;5106504;23;20549;-81
2021/11/15 09:19:59;;;;;;;47.17;28.80;;;7.10;98.30;;;;;;5106853;23;20430;-81
2021/11/15 09:22:02;;;;;;;41.20;28.40;;;7.10;98.30;;;;;;5106647;23;20494;-81
2021/11/15 09:24:06;;;;;;;44.30;27.60;;;7.20;98.30;;;;;;5099259;23;20937;-81
2021/11/15 09:26:11;;;;;;;43.70;30.20;;;7.20;98.30;;;;;;5099220;23;20434;-81
2021/11/15 09:28:14;;;;;;;40.60;27.43;;;7.20;98.30;;;;;;5098819;23;20534;-81
2021/11/15 09:30:18;;;;;;;42.97;28.23;;;7.30;98.30;;;;;;5091107;23;20455;-81
2021/11/15 09:32:23;;;;;;;46.00;29.17;;;7.30;98.30;;;;;;5091230;23;20520;-81
2021/11/15 09:34:26;;;;;;;41.67;27.47;;;7.30;98.30;;;;;;5091176;23;20455;-81
2021/11/15 09:36:29;;;;;;;41.30;26.10;;;7.30;98.30;;;;;;5099955;23;21080;-81
2021/11/15 09:38:32;;;;;;;44.87;29.90;;;7.30;98.30;;;;;;5091588;23;20405;-81
2021/11/15 09:40:35;;;;;;;45.77;29.27;;;7.20;98.30;;;;;;5091446;23;20610;-81
2021/11/15 09:42:39;;;;;;;40.67;24.53;;;7.30;98.30;;;;;;5099923;23;20754;-81
2021/11/15 09:44:43;;;;;;;45.43;29.03;;;7.30;98.30;;;;;;5100168;23;20438;-80
2021/11/15 09:46:47;;;;;;;42.73;28.47;;;7.30;98.30;;;;;;5092627;23;20457;-81
2021/11/15 09:48:55;;;;;;;39.50;27.77;;;7.30;98.30;;;;;;5101735;23;20429;-81
2021/11/15 09:50:58;;;;;;;56.20;36.43;;;7.30;98.30;;;;;;5110271;23;20545;-81
2021/11/15 09:53:01;;;;;;;45.47;32.13;;;7.30;98.30;;;;;;5109037;23;20505;-81
2021/11/15 09:55:05;;;;;;;45.30;29.67;;;7.30;98.30;;;;;;5101887;23;20415;-81
2021/11/15 09:57:11;;;;;;;42.40;27.23;;;7.30;98.30;;;;;;5092426;23;20537;-81
2021/11/15 09:59:14;;;;;;;44.17;28.20;;;7.30;98.30;;;;;;5101266;23;20513;-81
2021/11/15 10:01:17;;;;;;;45.23;28.90;;;7.30;98.30;;;;;;5101622;23;20421;-81
2021/11/15 10:03:21;;;;;;;44.00;28.30;;;7.40;98.30;;;;;;5101641;23;20431;-81
2021/11/15 10:05:25;;;;;;;42.80;27.70;;;7.30;98.30;;;;;;5102606;23;20436;-81
2021/11/15 10:07:43;;;;;;;40.63;27.80;;;7.40;98.30;;;;;;5095670;23;20860;-81
2021/11/15 10:09:48;;;;;;;45.70;29.87;;;7.40;98.30;;;;;;5098233;23;20458;-81
2021/11/15 10:11:51;;;;;;;41.17;27.23;;;7.30;98.30;;;;;;5111582;23;20430;-81
2021/11/15 10:13:56;;;;;;;42.07;30.30;;;7.30;98.30;;;;;;5111355;23;20451;-81
2021/11/15 10:16:09;;;;;;;47.57;29.20;;;7.30;98.30;;;;;;5103715;23;20415;-81
2021/11/15 10:18:13;;;;;;;47.20;29.20;;;7.30;98.30;;;;;;5111537;23;20443;-81
2021/11/15 10:20:17;;;;;;;43.63;27.40;;;7.30;98.30;;;;;;5111503;23;20454;-81
2021/11/15 10:22:29;;;;;;;47.07;27.47;;;7.40;98.30;;;;;;5104234;23;20837;-81
2021/11/15 10:24:36;;;;;;;39.93;25.07;;;7.40;98.30;;;;;;5111294;23;20415;-81
2021/11/15 10:26:40;;;;;;;42.63;28.33;;;7.40;98.30;;;;;;5111542;23;20467;-81
2021/11/15 10:28:44;;;;;;;41.90;27.70;;;7.30;98.30;;;;;;5102393;23;20763;-82
2021/11/15 10:30:47;;;;;;;53.90;30.37;;;7.30;98.30;;;;;;5102697;23;20452;-82
2021/11/15 10:32:52;;;;;;;44.33;28.70;;;7.40;98.30;;;;;;5111087;23;20457;-82
2021/11/15 10:34:58;;;;;;;45.90;29.27;;;7.40;98.30;;;;;;5102275;23;20441;-82
2021/11/15 10:37:05;;;;;;;44.97;29.73;;;7.40;98.30;;;;;;5102946;23;20488;-82
2021/11/15 10:39:10;;;;;;;46.50;29.10;;;7.30;98.30;;;;;;5110511;23;20457;-81
2021/11/15 10:41:15;;;;;;;44.77;27.57;;;7.30;98.30;;;;;;5102645;23;20478;-81
2021/11/15 10:43:20;;;;;;;44.63;26.07;;;7.30;98.30;;;;;;5102446;23;20957;-81